createdAt,value
2022-08-22T00:00:54.545Z,2.05
2022-08-22T00:02:49.028Z,1.73
2022-08-22T00:03:07.258Z,2.45
2022-08-22T00:03:15.268Z,1.90
2022-08-22T00:03:33.923Z,1.90
2022-08-22T00:06:14.232Z,2.50
2022-08-22T00:08:50.860Z,2.53
2022-08-22T00:11:30.115Z,2.35
2022-08-22T00:14:03.560Z,2.40
2022-08-22T00:16:39.358Z,1.83
2022-08-22T00:19:17.856Z,2.95
2022-08-22T00:21:54.344Z,2.70
2022-08-22T00:24:29.913Z,3.08
2022-08-22T00:27:02.913Z,3.50
2022-08-22T00:29:36.106Z,3.13
2022-08-22T00:32:12.737Z,2.75
2022-08-22T00:34:49.079Z,2.35
2022-08-22T00:37:24.457Z,2.20
2022-08-22T00:39:56.977Z,2.05
2022-08-22T00:42:53.167Z,2.63
2022-08-22T00:45:58.364Z,2.67
2022-08-22T00:48:54.679Z,2.88
2022-08-22T00:52:14.350Z,2.40
2022-08-22T00:55:04.718Z,2.28
2022-08-22T00:58:06.530Z,2.22
2022-08-22T01:00:43.031Z,2.33
2022-08-22T01:03:45.934Z,2.40
2022-08-22T01:06:24.910Z,2.58
2022-08-22T01:09:03.768Z,2.55
2022-08-22T01:12:06.365Z,1.90
2022-08-22T01:14:44.062Z,2.28
2022-08-22T01:17:51.653Z,2.13
2022-08-22T01:20:55.440Z,1.92
2022-08-22T01:24:00.588Z,1.50
2022-08-22T01:27:07.637Z,2.20
2022-08-22T01:30:11.286Z,1.98
2022-08-22T01:33:38.025Z,2.30
2022-08-22T01:36:34.767Z,2.00
2022-08-22T01:39:33.760Z,1.73
2022-08-22T01:42:26.209Z,2.08
2022-08-22T01:45:31.685Z,2.08
2022-08-22T01:48:07.313Z,1.90
2022-08-22T01:50:42.733Z,2.08
2022-08-22T01:53:18.556Z,2.45
2022-08-22T01:55:54.042Z,2.22
2022-08-22T01:58:25.023Z,1.80
2022-08-22T02:01:14.005Z,2.03
2022-08-22T02:03:53.989Z,2.03
2022-08-22T02:06:33.190Z,2.03
2022-08-22T02:09:07.389Z,2.55
2022-08-22T02:11:41.647Z,2.40
2022-08-22T02:14:22.061Z,1.92
2022-08-22T02:16:54.562Z,1.88
2022-08-22T02:19:32.178Z,1.67
2022-08-22T02:22:06.895Z,1.90
2022-08-22T02:24:50.593Z,1.80
2022-08-22T02:27:27.161Z,1.85
2022-08-22T02:30:05.623Z,2.50
2022-08-22T02:32:44.863Z,1.80
2022-08-22T02:35:31.038Z,1.98
2022-08-22T02:38:16.734Z,1.73
2022-08-22T02:40:54.360Z,1.58
2022-08-22T02:43:25.143Z,1.85
2022-08-22T02:45:56.894Z,1.73
2022-08-22T02:48:40.325Z,2.08
2022-08-22T02:51:15.583Z,2.17
2022-08-22T02:53:54.280Z,1.60
2022-08-22T02:56:31.511Z,1.90
2022-08-22T02:59:13.342Z,2.50
2022-08-22T03:01:43.701Z,2.63
2022-08-22T03:04:46.588Z,2.47
2022-08-22T03:07:26.714Z,2.50
2022-08-22T03:10:02.186Z,2.20
2022-08-22T03:12:40.000Z,1.83
2022-08-22T03:15:14.370Z,2.17
2022-08-22T03:17:51.952Z,2.30
2022-08-22T03:20:36.484Z,2.58
2022-08-22T03:23:10.304Z,1.65
2022-08-22T03:25:42.638Z,2.10
2022-08-22T03:28:16.578Z,1.70
2022-08-22T03:30:56.927Z,1.92
2022-08-22T03:33:27.334Z,2.13
2022-08-22T03:36:07.928Z,2.20
2022-08-22T03:38:52.537Z,2.20
2022-08-22T03:42:00.998Z,2.00
2022-08-22T03:45:01.836Z,1.50
2022-08-22T03:47:47.265Z,2.13
2022-08-22T03:50:54.913Z,1.75
2022-08-22T03:54:02.053Z,3.25
2022-08-22T03:57:18.046Z,2.17
2022-08-22T04:00:12.712Z,2.05
2022-08-22T04:03:04.860Z,2.25
2022-08-22T04:05:53.440Z,1.70
2022-08-22T04:09:05.154Z,2.70
2022-08-22T04:12:08.672Z,2.50
2022-08-22T04:15:21.156Z,2.20
2022-08-22T04:18:06.812Z,2.25
2022-08-22T04:21:24.051Z,2.03
2022-08-22T04:24:21.112Z,2.67
2022-08-22T04:26:53.071Z,2.30
2022-08-22T04:29:26.276Z,1.85
2022-08-22T04:32:01.711Z,2.38
2022-08-22T04:34:39.930Z,2.00
2022-08-22T04:37:15.418Z,2.03
2022-08-22T04:39:49.718Z,1.70
2022-08-22T04:42:38.431Z,2.40
2022-08-22T04:45:11.530Z,2.90
2022-08-22T04:47:43.968Z,1.88
2022-08-22T04:50:25.073Z,2.50
2022-08-22T04:53:09.136Z,1.90
2022-08-22T04:55:45.707Z,1.52
2022-08-22T04:58:25.508Z,2.10
2022-08-22T05:00:58.483Z,2.38
2022-08-22T05:03:29.478Z,2.10
2022-08-22T05:06:01.785Z,2.63
2022-08-22T05:08:34.834Z,1.85
2022-08-22T05:11:05.579Z,2.25
2022-08-22T05:13:39.074Z,3.25
2022-08-22T05:16:14.805Z,2.33
2022-08-22T05:18:47.056Z,2.50
2022-08-22T05:21:18.685Z,2.55
2022-08-22T05:23:51.089Z,2.67
2022-08-22T05:26:20.267Z,2.33
2022-08-22T05:28:53.205Z,2.10
2022-08-22T05:31:26.312Z,2.00
2022-08-22T05:33:57.456Z,2.95
2022-08-22T05:36:29.519Z,2.30
2022-08-22T05:39:00.173Z,2.50
2022-08-22T05:41:31.817Z,2.38
2022-08-22T05:44:00.356Z,2.67
2022-08-22T05:46:42.047Z,2.13
2022-08-22T05:49:19.721Z,2.42
2022-08-22T05:51:58.972Z,2.00
2022-08-22T05:54:34.519Z,2.05
2022-08-22T05:57:14.985Z,2.67
2022-08-22T05:59:45.622Z,2.10
2022-08-22T06:02:20.762Z,2.33
2022-08-22T06:04:51.926Z,2.00
2022-08-22T06:07:25.364Z,2.88
2022-08-22T06:10:09.725Z,2.33
2022-08-22T06:12:41.155Z,2.40
2022-08-22T06:15:16.919Z,2.90
2022-08-22T06:17:51.621Z,2.42
2022-08-22T06:20:22.649Z,2.83
2022-08-22T06:22:55.513Z,2.63
2022-08-22T06:25:27.219Z,2.78
2022-08-22T06:27:56.695Z,2.42
2022-08-22T06:30:27.475Z,2.25
2022-08-22T06:33:01.954Z,2.85
2022-08-22T06:35:54.646Z,1.98
2022-08-22T06:38:33.564Z,2.80
2022-08-22T06:41:04.016Z,2.10
2022-08-22T06:43:39.323Z,2.08
2022-08-22T06:46:07.817Z,2.63
2022-08-22T06:48:37.055Z,1.95
2022-08-22T06:51:08.603Z,1.92
2022-08-22T06:53:48.058Z,2.30
2022-08-22T06:56:22.302Z,1.70
2022-08-22T06:58:53.781Z,2.15
2022-08-22T07:01:26.093Z,2.17
2022-08-22T07:03:56.733Z,1.98
2022-08-22T07:06:31.329Z,2.28
2022-08-22T07:09:05.676Z,2.33
2022-08-22T07:11:40.197Z,2.22
2022-08-22T07:14:11.312Z,3.05
2022-08-22T07:16:43.907Z,2.33
2022-08-22T07:19:24.533Z,2.15
2022-08-22T07:21:52.996Z,1.95
2022-08-22T07:24:25.946Z,2.30
2022-08-22T07:27:06.135Z,1.80
2022-08-22T07:29:44.143Z,2.00
2022-08-22T07:32:16.199Z,1.63
2022-08-22T07:35:07.709Z,1.88
2022-08-22T07:37:53.836Z,1.73
2022-08-22T07:40:28.525Z,2.60
2022-08-22T07:43:01.240Z,2.45
2022-08-22T07:45:36.086Z,1.95
2022-08-22T07:48:19.779Z,2.08
2022-08-22T07:51:01.593Z,2.40
2022-08-22T07:53:40.751Z,2.40
2022-08-22T07:56:15.544Z,2.75
2022-08-22T07:58:46.547Z,1.75
2022-08-22T08:01:18.786Z,1.77
2022-08-22T08:03:53.372Z,1.70
2022-08-22T08:06:24.151Z,2.20
2022-08-22T08:08:53.861Z,2.75
2022-08-22T08:11:27.391Z,2.30
2022-08-22T08:13:59.988Z,2.13
2022-08-22T08:16:31.692Z,1.90
2022-08-22T08:19:02.765Z,1.83
2022-08-22T08:21:34.647Z,2.13
2022-08-22T08:24:03.613Z,2.10
2022-08-22T08:26:36.459Z,2.28
2022-08-22T08:29:04.735Z,1.77
2022-08-22T08:31:38.000Z,2.10
2022-08-22T08:34:16.389Z,1.80
2022-08-22T08:36:50.918Z,2.70
2022-08-22T08:39:25.275Z,1.98
2022-08-22T08:42:26.633Z,2.13
2022-08-22T08:45:16.582Z,2.13
2022-08-22T08:48:15.002Z,2.13
2022-08-22T08:51:17.590Z,1.92
2022-08-22T08:54:22.110Z,2.33
2022-08-22T08:56:59.735Z,1.70
2022-08-22T08:59:44.441Z,2.08
2022-08-22T09:02:46.990Z,1.63
2022-08-22T09:05:51.938Z,1.65
2022-08-22T09:08:50.714Z,2.25
2022-08-22T09:12:10.294Z,1.50
2022-08-22T09:15:12.016Z,2.35
2022-08-22T09:18:27.036Z,2.08
2022-08-22T09:21:33.410Z,1.67
2022-08-22T09:24:45.387Z,1.30
2022-08-22T09:27:17.274Z,1.90
2022-08-22T09:29:54.724Z,1.33
2022-08-22T09:32:37.144Z,1.30
2022-08-22T09:35:12.276Z,1.23
2022-08-22T09:37:57.779Z,1.15
2022-08-22T09:40:30.505Z,1.17
2022-08-22T09:43:06.146Z,1.50
2022-08-22T09:45:51.533Z,1.13
2022-08-22T09:48:40.541Z,1.20
2022-08-22T09:51:32.286Z,1.30
2022-08-22T09:54:31.480Z,1.30
2022-08-22T09:57:08.852Z,1.65
2022-08-22T09:59:51.814Z,1.38
2022-08-22T10:02:34.417Z,1.20
2022-08-22T10:05:12.247Z,0.80
2022-08-22T10:08:01.551Z,2.60
2022-08-22T10:10:46.634Z,1.20
2022-08-22T10:13:24.625Z,1.25
2022-08-22T10:15:57.915Z,1.10
2022-08-22T10:18:36.696Z,1.02
2022-08-22T10:21:15.390Z,0.82
2022-08-22T10:23:50.030Z,1.08
2022-08-22T10:26:35.246Z,1.20
2022-08-22T10:29:17.687Z,1.20
2022-08-22T10:31:58.943Z,1.40
2022-08-22T10:34:36.319Z,1.48
2022-08-22T10:37:13.669Z,1.70
2022-08-22T10:39:47.787Z,1.45
2022-08-22T10:42:28.246Z,1.70
2022-08-22T10:45:35.489Z,1.88
2022-08-22T10:48:34.552Z,0.90
2022-08-22T10:51:15.044Z,2.13
2022-08-22T10:54:09.698Z,1.40
2022-08-22T10:56:43.938Z,1.45
2022-08-22T10:59:29.202Z,1.17
2022-08-22T11:02:13.566Z,1.40
2022-08-22T11:05:08.904Z,1.00
2022-08-22T11:07:48.948Z,1.63
2022-08-22T11:10:27.944Z,1.50
2022-08-22T11:13:12.682Z,1.27
2022-08-22T11:15:55.975Z,1.70
2022-08-22T11:18:36.259Z,1.83
2022-08-22T11:21:09.465Z,1.55
2022-08-22T11:23:46.353Z,1.50
2022-08-22T11:26:29.306Z,1.63
2022-08-22T11:29:14.318Z,1.88
2022-08-22T11:31:52.410Z,1.90
2022-08-22T11:34:35.905Z,1.63
2022-08-22T11:37:11.585Z,1.20
2022-08-22T11:40:01.405Z,1.50
2022-08-22T11:42:34.643Z,1.30
2022-08-22T11:45:06.470Z,1.45
2022-08-22T11:47:43.701Z,1.55
2022-08-22T11:50:19.015Z,1.88
2022-08-22T11:53:01.438Z,2.17
2022-08-22T11:55:39.191Z,2.45
2022-08-22T11:58:20.122Z,1.55
2022-08-22T12:00:55.187Z,1.70
2022-08-22T12:03:41.870Z,2.30
2022-08-22T12:06:32.740Z,1.70
2022-08-22T12:09:35.755Z,1.25
2022-08-22T12:12:32.266Z,1.15
2022-08-22T12:15:09.088Z,1.67
2022-08-22T12:18:07.214Z,1.20
2022-08-22T12:21:14.387Z,1.75
2022-08-22T12:24:11.317Z,1.25
2022-08-22T12:26:57.681Z,1.48
2022-08-22T12:29:44.765Z,1.30
2022-08-22T12:32:43.760Z,1.50
2022-08-22T12:35:30.343Z,1.42
2022-08-22T12:38:28.412Z,1.50
2022-08-22T12:41:28.279Z,1.00
2022-08-22T12:44:27.307Z,1.38
2022-08-22T12:47:09.791Z,1.40
2022-08-22T12:49:52.884Z,1.30
2022-08-22T12:52:35.701Z,1.33
2022-08-22T12:55:37.747Z,1.33
2022-08-22T12:58:13.390Z,1.27
2022-08-22T13:00:45.185Z,1.20
2022-08-22T13:03:24.136Z,1.52
2022-08-22T13:05:57.019Z,1.52
2022-08-22T13:08:31.650Z,1.50
2022-08-22T13:11:02.542Z,1.27
2022-08-22T13:13:56.176Z,1.55
2022-08-22T13:16:26.578Z,1.45
2022-08-22T13:18:59.136Z,1.60
2022-08-22T13:21:31.618Z,1.83
2022-08-22T13:24:10.601Z,1.60
2022-08-22T13:26:49.011Z,1.80
2022-08-22T13:29:39.120Z,1.42
2022-08-22T13:32:17.213Z,1.40
2022-08-22T13:34:51.120Z,2.03
2022-08-22T13:37:24.625Z,1.30
2022-08-22T13:39:57.354Z,1.65
2022-08-22T13:42:30.905Z,1.73
2022-08-22T13:45:04.313Z,1.63
2022-08-22T13:47:39.354Z,1.58
2022-08-22T13:50:13.908Z,2.10
2022-08-22T13:52:52.288Z,1.50
2022-08-22T13:55:30.209Z,1.33
2022-08-22T13:58:06.877Z,1.60
2022-08-22T14:01:10.409Z,1.00
2022-08-22T14:03:48.825Z,1.30
2022-08-22T14:06:37.899Z,1.63
2022-08-22T14:09:17.602Z,1.27
2022-08-22T14:12:12.034Z,1.08
2022-08-22T14:14:42.771Z,1.33
2022-08-22T14:17:17.767Z,1.45
2022-08-22T14:19:58.544Z,1.10
2022-08-22T14:22:34.650Z,1.23
2022-08-22T14:25:07.158Z,1.25
2022-08-22T14:27:39.767Z,1.30
2022-08-22T14:30:17.037Z,1.40
2022-08-22T14:32:50.502Z,1.10
2022-08-22T14:35:35.110Z,1.23
2022-08-22T14:38:29.825Z,1.60
2022-08-22T14:41:03.574Z,1.33
2022-08-22T14:43:49.550Z,1.60
2022-08-22T14:46:26.703Z,1.38
2022-08-22T14:49:28.649Z,1.23
2022-08-22T14:52:02.527Z,1.58
2022-08-22T14:54:33.663Z,1.33
2022-08-22T14:57:04.745Z,1.30
2022-08-22T14:59:47.094Z,1.45
2022-08-22T15:02:26.196Z,1.90
2022-08-22T15:04:55.978Z,1.35
2022-08-22T15:07:26.866Z,1.30
2022-08-22T15:10:03.004Z,1.45
2022-08-22T15:12:34.095Z,1.15
2022-08-22T15:15:05.813Z,1.15
2022-08-22T15:17:43.918Z,1.25
2022-08-22T15:20:27.795Z,1.23
2022-08-22T15:22:58.274Z,1.38
2022-08-22T15:25:32.433Z,1.08
2022-08-22T15:28:07.805Z,1.45
2022-08-22T15:30:44.795Z,1.38
2022-08-22T15:33:17.136Z,1.02
2022-08-22T15:35:48.473Z,1.17
2022-08-22T15:38:32.555Z,1.88
2022-08-22T15:41:40.655Z,0.75
2022-08-22T15:44:14.915Z,1.02
2022-08-22T15:47:05.636Z,1.55
2022-08-22T15:49:50.431Z,1.63
2022-08-22T15:52:25.885Z,1.15
2022-08-22T15:55:18.499Z,1.60
2022-08-22T15:58:02.095Z,1.13
2022-08-22T16:00:34.314Z,1.33
2022-08-22T16:03:07.529Z,1.45
2022-08-22T16:05:49.010Z,1.55
2022-08-22T16:08:24.998Z,1.50
2022-08-22T16:11:12.324Z,1.40
2022-08-22T16:13:45.382Z,1.40
2022-08-22T16:16:56.454Z,1.40
2022-08-22T16:19:25.823Z,1.20
2022-08-22T16:22:17.394Z,1.30
2022-08-22T16:24:59.653Z,1.42
2022-08-22T16:27:28.969Z,1.40
2022-08-22T16:30:10.104Z,1.38
2022-08-22T16:32:40.362Z,1.55
2022-08-22T16:35:08.387Z,2.40
2022-08-22T16:37:50.002Z,1.55
2022-08-22T16:40:25.920Z,1.60
2022-08-22T16:43:12.849Z,1.20
2022-08-22T16:45:44.631Z,1.20
2022-08-22T16:48:33.367Z,1.65
2022-08-22T16:51:08.927Z,1.15
2022-08-22T16:54:06.950Z,1.45
2022-08-22T16:56:54.985Z,1.70
2022-08-22T16:59:56.228Z,1.48
2022-08-22T17:02:45.915Z,1.20
2022-08-22T17:05:30.465Z,2.03
2022-08-22T17:08:14.436Z,1.70
2022-08-22T17:10:59.743Z,2.05
2022-08-22T17:13:42.318Z,1.52
2022-08-22T17:16:32.723Z,1.20
2022-08-22T17:19:13.940Z,1.23
2022-08-22T17:21:53.580Z,1.80
2022-08-22T17:24:32.315Z,1.48
2022-08-22T17:27:09.064Z,1.75
2022-08-22T17:29:53.732Z,1.73
2022-08-22T17:32:30.219Z,1.30
2022-08-22T17:35:06.905Z,2.13
2022-08-22T17:37:56.025Z,1.80
2022-08-22T17:40:33.974Z,1.67
2022-08-22T17:43:23.864Z,1.65
2022-08-22T17:46:19.577Z,1.23
2022-08-22T17:48:54.627Z,1.75
2022-08-22T17:51:29.340Z,1.85
2022-08-22T17:54:05.574Z,1.15
2022-08-22T17:56:39.668Z,1.00
2022-08-22T17:59:20.917Z,1.13
2022-08-22T18:01:54.753Z,1.58
2022-08-22T18:04:32.051Z,1.05
2022-08-22T18:07:22.512Z,1.77
2022-08-22T18:09:57.235Z,1.52
2022-08-22T18:12:34.337Z,1.48
2022-08-22T18:15:09.724Z,1.88
2022-08-22T18:17:42.437Z,1.58
2022-08-22T18:20:16.253Z,1.33
2022-08-22T18:22:50.548Z,2.28
2022-08-22T18:25:36.940Z,1.40
2022-08-22T18:28:10.038Z,1.25
2022-08-22T18:30:51.690Z,1.83
2022-08-22T18:33:28.715Z,1.23
2022-08-22T18:36:08.576Z,1.77
2022-08-22T18:38:46.407Z,1.50
2022-08-22T18:41:23.024Z,1.90
2022-08-22T18:43:55.053Z,1.65
2022-08-22T18:46:41.262Z,1.83
2022-08-22T18:49:34.757Z,1.40
2022-08-22T18:52:16.058Z,1.60
2022-08-22T18:55:06.334Z,1.67
2022-08-22T18:57:47.451Z,1.30
2022-08-22T19:00:17.783Z,1.50
2022-08-22T19:03:17.341Z,1.80
2022-08-22T19:06:10.979Z,1.83
2022-08-22T19:09:09.611Z,1.30
2022-08-22T19:11:47.877Z,1.60
2022-08-22T19:14:33.173Z,1.73
2022-08-22T19:17:19.477Z,2.22
2022-08-22T19:20:15.855Z,1.90
2022-08-22T19:22:44.470Z,1.65
2022-08-22T19:25:26.150Z,1.80
2022-08-22T19:28:23.702Z,2.17
2022-08-22T19:31:22.795Z,2.03
2022-08-22T19:34:07.224Z,2.28
2022-08-22T19:36:35.885Z,2.55
2022-08-22T19:39:09.171Z,2.53
2022-08-22T19:41:47.139Z,2.70
2022-08-22T19:44:42.107Z,2.80
2022-08-22T19:47:27.739Z,3.08
2022-08-22T19:50:05.471Z,2.45
2022-08-22T19:52:49.840Z,2.10
2022-08-22T19:55:23.974Z,2.20
2022-08-22T19:58:04.941Z,2.30
2022-08-22T20:00:53.510Z,2.13
2022-08-22T20:03:37.626Z,2.15
2022-08-22T20:06:33.752Z,1.98
2022-08-22T20:09:17.942Z,2.53
2022-08-22T20:11:53.789Z,2.63
2022-08-22T20:14:30.837Z,2.53
2022-08-22T20:17:11.746Z,2.42
2022-08-22T20:22:44.171Z,2.15
2022-08-22T20:25:43.523Z,2.30
2022-08-22T20:28:10.891Z,2.70
2022-08-22T20:30:42.486Z,2.33
2022-08-22T20:33:14.551Z,2.60
2022-08-22T20:35:51.350Z,3.90
2022-08-22T20:38:22.911Z,2.90
2022-08-22T20:41:01.209Z,2.85
2022-08-22T20:43:34.278Z,3.42
2022-08-22T20:46:12.436Z,3.78
2022-08-22T20:48:43.321Z,2.72
2022-08-22T20:51:17.448Z,3.00
2022-08-22T20:53:52.488Z,3.55
2022-08-22T20:56:32.919Z,3.13
2022-08-22T20:59:14.483Z,3.55
2022-08-22T21:01:42.884Z,3.20
2022-08-22T21:04:11.507Z,5.03
2022-08-22T21:06:40.715Z,3.13
2022-08-22T21:09:33.143Z,2.97
2022-08-22T21:12:01.939Z,3.28
2022-08-22T21:14:34.836Z,4.05
2022-08-22T21:17:18.642Z,3.10
2022-08-22T21:19:46.649Z,2.88
2022-08-22T21:22:19.382Z,2.70
2022-08-22T21:24:47.401Z,2.50
2022-08-22T21:27:24.257Z,2.92
2022-08-22T21:29:52.354Z,2.58
2022-08-22T21:32:26.338Z,5.75
2022-08-22T21:34:54.966Z,4.53
2022-08-22T21:37:36.793Z,5.05
2022-08-22T21:40:14.720Z,7.28
2022-08-22T21:42:44.917Z,4.53
2022-08-22T21:45:27.667Z,3.35
2022-08-22T21:47:56.015Z,4.20
2022-08-22T21:50:34.567Z,3.22
2022-08-22T21:53:09.163Z,6.03
2022-08-22T21:55:39.937Z,7.55
2022-08-22T21:58:12.741Z,7.82
2022-08-22T22:01:02.681Z,4.90
2022-08-22T22:03:36.907Z,3.75
2022-08-22T22:06:07.529Z,2.72
2022-08-22T22:08:36.679Z,3.28
2022-08-22T22:11:08.721Z,2.88
2022-08-22T22:13:37.280Z,3.25
2022-08-22T22:16:07.430Z,3.28
2022-08-22T22:18:37.675Z,2.53
2022-08-22T22:21:05.737Z,3.03
2022-08-22T22:23:33.648Z,3.55
2022-08-22T22:26:06.092Z,4.88
2022-08-22T22:28:35.738Z,4.70
2022-08-22T22:31:03.610Z,4.82
2022-08-22T22:33:34.342Z,3.40
2022-08-22T22:36:07.088Z,3.15
2022-08-22T22:38:35.211Z,3.10
2022-08-22T22:41:04.528Z,3.42
2022-08-22T22:43:32.809Z,2.92
2022-08-22T22:46:00.832Z,2.70
2022-08-22T22:48:29.138Z,2.90
2022-08-22T22:50:56.954Z,3.05
2022-08-22T22:53:33.762Z,3.08
2022-08-22T22:56:10.691Z,2.83
2022-08-22T22:58:39.867Z,2.55
2022-08-22T23:01:09.752Z,3.30
2022-08-22T23:03:37.716Z,2.83
2022-08-22T23:06:10.701Z,3.13
2022-08-22T23:08:38.546Z,2.92
2022-08-22T23:11:13.054Z,3.00
2022-08-22T23:13:42.909Z,2.72
2022-08-22T23:16:13.317Z,3.00
2022-08-22T23:18:41.938Z,3.00
2022-08-22T23:21:14.862Z,2.53
2022-08-22T23:23:43.249Z,2.65
2022-08-22T23:26:13.237Z,3.17
2022-08-22T23:28:41.761Z,3.35
2022-08-22T23:31:14.510Z,3.00
2022-08-22T23:33:42.743Z,3.03
2022-08-22T23:36:15.637Z,2.97
2022-08-22T23:38:44.108Z,3.13
2022-08-22T23:41:14.905Z,3.30
2022-08-22T23:43:44.813Z,3.40
2022-08-22T23:46:13.070Z,3.40
2022-08-22T23:48:41.649Z,2.60
2022-08-22T23:51:11.425Z,3.08
2022-08-22T23:53:39.779Z,3.30
2022-08-22T23:56:19.780Z,3.10
2022-08-22T23:58:49.179Z,3.00
